首页
METAR-TAF:

METAR-TAF

机场 :

Meierwik

格吕克斯堡, 德国

纬度: 54-50N, 经度: 009-30E, 海拔: 27米

当前天气观测

该预报发布于57分钟前的09:20 UTC
风速6节,风向南转南东
温度 7°C
湿度 93%
气压 1008 hPa
能見度: 4000
少量云层高于700英尺
散云层高于7000英尺
多云层高于16000英尺
轻雾

METAR: ETGG 220920Z 15006KT 4000 BR FEW007 SCT070 BKN160 07/06 Q1008 GRN

时间: 11:17 (10:17 UTC)


TAF: 丢失

超过4000个机场的气象观测和天气预报(METAR&TAF报告)。

可查询的气象台以黄色和红色小点在地图上表示。

将鼠标移到小点上方,可查看气象台名称。

然后点击查看天气观测和预报。

如需切换地图:点击带黑十字的绿色按钮放大地图;点击带横线的绿色按钮缩小地图;或者点击绿色箭头查看邻近地区的地图。


METAR-TAF: